Corystes — GHRU — position and weather

sailwx.info

Track history (hours):
 
Tides and Currents Weather Stations Pressure Air Temp Water Temp Dewpoint Dewpoint Depression Visibility Wind Speed Wind Dir Waves Ship Positions

Oceanographic research ship Corystes (UK)

Detailed information on ship capabilities available from University of Delaware's Ocean Information Center.

Last reported at 2017-May-26 07:00 UTC. Time now 2017-May-26 07:25 UTC.
Position N 54°39' W 005°27'.

Length 53 m; draft 5.2 m.

Type: Cargo ship. MMSI: 233558000.

Date/timePositionNaut miles runAvg speedWind from/ knotsBaromVisibWave heightAir tempDewpointWater temp
2017-May-26 07:00N 54°39' W 005°27'3 6.8
2017-May-26 06:30N 54°36' W 005°25'4 8.0
2017-May-26 06:00N 54°33' W 005°23'4 8.5
2017-May-26 05:30N 54°29' W 005°20'5 9.0
2017-May-26 05:00N 54°24' W 005°17'5 9.3
2017-May-26 04:30N 54°20' W 005°15'5 9.7
2017-May-26 04:00N 54°16' W 005°11'5 9.8
2017-May-26 03:30N 54°11' W 005°09'7 7.1
2017-May-26 02:27N 54°04' W 005°05'4 8.4
2017-May-26 02:00N 54°04' W 005°12'4 8.3
2017-May-26 01:30N 54°04' W 005°19'1 2.6
2017-May-26 01:00N 54°03' W 005°20'5 9.6
2017-May-26 00:30N 53°58' W 005°20'2 4.0
2017-May-25 23:55N 53°56' W 005°20'4 9.5
2017-May-25 23:30N 53°53' W 005°14'4 6.3
2017-May-25 22:53N 53°52' W 005°08'8 8.2
2017-May-25 21:52N 53°53' W 004°54'1 2.6
2017-May-25 21:30N 53°53' W 004°52'7 3.6
2017-May-25 19:25N 53°57' W 004°42'0 0.4
2017-May-25 18:55N 53°57' W 004°42'9 4.3
2017-May-25 16:48N 54°03' W 004°54'3 9.5
2017-May-25 16:30N 54°04' W 004°58'5 9.4
2017-May-25 16:00N 54°07' W 005°05'5 9.6
2017-May-25 15:30N 54°09' W 005°12'5 9.1
2017-May-25 15:00N 54°13' W 005°16'9 9.1
2017-May-25 14:00N 54°22' W 005°20'1 1.3
2017-May-25 13:30N 54°23' W 005°20'1 2.8
2017-May-25 13:00N 54°22' W 005°23'0 0.7
2017-May-25 12:30N 54°22' W 005°23'1 2.5
2017-May-25 12:00N 54°22' W 005°20'3 5.9
2017-May-25 11:30N 54°23' W 005°15'4 7.9
2017-May-25 11:00N 54°23' W 005°09'3 5.6
2017-May-25 10:30N 54°23' W 005°04'5 9.5
2017-May-25 10:00N 54°23' W 004°56'2 3.9
2017-May-25 09:30N 54°22' W 004°52'4 8.2
2017-May-25 09:00N 54°18' W 004°54'5 9.2
2017-May-25 08:30N 54°14' W 004°55'5 9.1
2017-May-25 08:00N 54°09' W 004°56'5 8.7
2017-May-25 07:29N 54°05' W 004°58'4 9.3
2017-May-25 07:00N 54°00' W 004°60'5 9.5
2017-May-25 06:30N 53°56' W 005°02'13 2.3
2017-May-25 00:58N 53°49' W 005°20'4 8.0
2017-May-25 00:27N 53°49' W 005°27'4 8.1
2017-May-24 23:56N 53°49' W 005°34'1 3.0
2017-May-24 23:29N 53°50' W 005°36'13 7.6
2017-May-24 21:45N 54°03' W 005°37'4 9.3
2017-May-24 21:22N 54°06' W 005°37'1 2.2
2017-May-24 21:00N 54°07' W 005°38'5 9.1
2017-May-24 20:27N 54°07' W 005°46'3 5.5
2017-May-24 19:59N 54°07' W 005°50'4 8.1
2017-May-24 19:30N 54°07' W 005°44'4 7.2
2017-May-24 18:58N 54°07' W 005°37'3 7.4
2017-May-24 18:30N 54°07' W 005°31'5 9.1
2017-May-24 18:00N 54°07' W 005°24'2 3.8
2017-May-24 17:30N 54°07' W 005°20'5 9.4
2017-May-24 17:00N 54°07' W 005°12'19 4.3
2017-May-24 12:35N 53°56' W 005°38'2 7.9
2017-May-24 12:20N 53°56' W 005°42'3 9.8
2017-May-24 11:59N 53°56' W 005°47'3 6.0
2017-May-24 11:28N 53°56' W 005°53'5 8.3
2017-May-24 10:52N 53°52' W 005°57'1 3.0
2017-May-24 10:30N 53°52' W 005°58'5 9.7
2017-May-24 10:00N 53°55' W 006°05'1 1.3
2017-May-24 09:31N 53°56' W 006°05'4 8.2
2017-May-24 09:00N 53°52' W 006°07'3 6.5
2017-May-24 08:30N 53°49' W 006°08'4 7.6
2017-May-24 08:00N 53°50' W 006°02'3 5.9
2017-May-24 07:30N 53°52' W 005°57'3 6.9
2017-May-24 07:00N 53°49' W 005°53'2 3.9
2017-May-24 06:30N 53°49' W 005°50'5 9.4
2017-May-24 06:00N 53°49' W 005°42'17 3.9
2017-May-24 01:40N 53°34' W 005°52'1 3.0
2017-May-24 01:27N 53°34' W 005°53'4 8.5
2017-May-24 00:58N 53°36' W 005°59'3 5.2
2017-May-24 00:20N 53°38' W 006°04'3 8.9
2017-May-24 00:00N 53°39' W 005°59'5 6.4
2017-May-23 23:13N 53°42' W 005°52'2 9.8
2017-May-23 23:00N 53°44' W 005°52'5 9.8
2017-May-23 22:30N 53°49' W 005°53'2 4.3
2017-May-23 22:00N 53°51' W 005°52'5 8.7
2017-May-23 21:27N 53°56' W 005°53'2 4.1
2017-May-23 21:00N 53°56' W 005°56'5 9.8
2017-May-23 20:30N 53°54' W 006°03'2 4.9
2017-May-23 20:00N 53°52' W 006°06'5 9.3
2017-May-23 19:30N 53°49' W 005°59'4 7.8
2017-May-23 19:00N 53°49' W 005°52'3 6.5
2017-May-23 18:30N 53°49' W 005°47'8 1.7
2017-May-23 13:32N 53°41' W 005°44'2 9.8
2017-May-23 13:20N 53°41' W 005°47'9 3.9
2017-May-23 11:02N 53°40' W 006°02'1 9.8
2017-May-23 10:58N 53°41' W 006°03'4 4.8
2017-May-23 10:13N 53°37' W 006°03'22 2.0
2017-May-22 23:17N 53°19' W 005°45'3 9.5
2017-May-22 22:58N 53°19' W 005°50'2 4.1
2017-May-22 22:30N 53°19' W 005°53'5 9.5
2017-May-22 21:59N 53°24' W 005°52'2 4.9
2017-May-22 21:30N 53°26' W 005°53'4 9.1
2017-May-22 21:00N 53°25' W 005°60'1 1.9
2017-May-22 20:30N 53°25' W 006°01'4 8.4
2017-May-22 20:00N 53°23' W 005°55'2 4.5
2017-May-22 19:30N 53°22' W 005°51'54 4.9
2017-May-22 08:21N 54°04' W 004°53'3 8.6
2017-May-22 08:00N 54°08' W 004°53'2 1.8
2017-May-22 07:08N 54°06' W 004°52'0 2.5
2017-May-22 06:58N 54°07' W 004°52'1 0.8
2017-May-22 06:00N 54°07' W 004°53'0 0.2
2017-May-22 05:24N 54°07' W 004°53'1 1.7
2017-May-22 05:00N 54°07' W 004°52'2 4.8
2017-May-22 04:30N 54°08' W 004°55'5 9.4
2017-May-22 04:00N 54°10' W 005°02'2 4.3
2017-May-22 03:30N 54°11' W 005°06'4 8.1
2017-May-22 03:00N 54°10' W 005°12'4 8.7
2017-May-22 02:30N 54°10' W 005°20'1 3.0
2017-May-22 02:00N 54°12' W 005°20'5 9.1
2017-May-22 01:30N 54°16' W 005°20'5 9.2
2017-May-22 01:00N 54°21' W 005°20'4 8.7
2017-May-22 00:30N 54°25' W 005°20'4 8.4
2017-May-22 00:00N 54°29' W 005°20'4 8.3
2017-May-21 23:30N 54°33' W 005°23'4 7.6
2017-May-21 23:00N 54°37' W 005°25'4 7.6
2017-May-21 22:31N 54°40' W 005°27'3 6.8
2017-May-21 22:00N 54°43' W 005°31'4 8.7
2017-May-21 21:30N 54°43' W 005°38'5 9.7
2017-May-21 21:00N 54°41' W 005°46'5 9.5
2017-May-21 20:30N 54°38' W 005°52'2 4.4
2017-May-21 20:00N 54°36' W 005°55'0 0.0
2017-May-21 19:15N 54°36' W 005°55'0 0.0
2017-May-21 18:54N 54°36' W 005°55'0 0.0
2017-May-21 18:30N 54°36' W 005°55'0 0.0
2017-May-21 17:27N 54°36' W 005°55'0 0.0
2017-May-21 17:00N 54°36' W 005°55'0 0.0
2017-May-21 16:18N 54°36' W 005°55'0 0.0
2017-May-21 15:57N 54°36' W 005°55'0 0.0
2017-May-21 15:30N 54°36' W 005°55'0 0.0
2017-May-21 13:42N 54°36' W 005°55'0 0.0
2017-May-21 13:27N 54°36' W 005°55'0 0.0
2017-May-21 12:57N 54°36' W 005°55'0 0.0
2017-May-21 12:30N 54°36' W 005°55'0 0.0
2017-May-21 11:57N 54°36' W 005°55'0 0.0
2017-May-21 11:21N 54°36' W 005°55'0 0.0
2017-May-21 10:57N 54°36' W 005°55'0 0.0
2017-May-21 10:06N 54°36' W 005°55'0 0.0
2017-May-21 10:00N 54°36' W 005°55'0 0.0
2017-May-21 09:27N 54°36' W 005°55'0 0.0
2017-May-21 08:51N 54°36' W 005°55'0 0.0
2017-May-21 08:24N 54°36' W 005°55'0 0.0
2017-May-21 07:48N 54°36' W 005°55'0 0.0
2017-May-21 07:27N 54°36' W 005°55'0 0.0
2017-May-21 06:54N 54°36' W 005°55'0 0.0
2017-May-21 06:21N 54°36' W 005°55'0 0.0
2017-May-21 05:33N 54°36' W 005°55'0 0.0
2017-May-21 05:27N 54°36' W 005°55'0 0.0
2017-May-21 04:57N 54°36' W 005°55'0 0.0
2017-May-21 04:30N 54°36' W 005°55'0 0.0
2017-May-21 03:57N 54°36' W 005°55'0 0.0
2017-May-21 03:30N 54°36' W 005°55'0 0.0
2017-May-21 02:45N 54°36' W 005°55'0 0.0
2017-May-21 02:21N 54°36' W 005°55'0 0.0
2017-May-21 01:51N 54°36' W 005°55'0 0.0
2017-May-21 01:24N 54°36' W 005°55'0 0.0
2017-May-21 00:48N 54°36' W 005°55'0 0.0
2017-May-21 00:30N 54°36' W 005°55'0 0.0
2017-May-20 23:54N 54°36' W 005°55'0 0.0
2017-May-20 23:09N 54°36' W 005°55'0 0.0
2017-May-20 22:44N 54°36' W 005°55'0 0.0
2017-May-20 22:20N 54°36' W 005°55'0 0.0
2017-May-20 21:56N 54°36' W 005°55'0 0.0
2017-May-20 21:21N 54°36' W 005°55'0 0.0
2017-May-20 20:33N 54°36' W 005°55'0 0.0
2017-May-20 20:20N 54°36' W 005°55'0 0.0
2017-May-20 19:56N 54°36' W 005°55'0 0.0
2017-May-20 19:26N 54°36' W 005°55'0 0.0
2017-May-20 18:56N 54°36' W 005°55'0 0.0
2017-May-20 18:20N 54°36' W 005°55'0 0.0
2017-May-20 17:59N 54°36' W 005°55'0 0.0
2017-May-20 17:26N 54°36' W 005°55'0 0.0
2017-May-20 16:59N 54°36' W 005°55'0 0.0
2017-May-20 16:23N 54°36' W 005°55'0 0.0
2017-May-20 15:59N 54°36' W 005°55'0 0.0
2017-May-20 15:29N 54°36' W 005°55'0 0.0
2017-May-20 14:59N 54°36' W 005°55'0 0.0
2017-May-20 14:26N 54°36' W 005°55'0 0.0
2017-May-20 13:29N 54°36' W 005°55'0 0.0
2017-May-20 12:38N 54°36' W 005°55'0 0.0
2017-May-20 12:26N 54°36' W 005°55'0 0.0
2017-May-20 11:47N 54°36' W 005°55'0 0.0
2017-May-20 11:20N 54°36' W 005°55'0 0.0
2017-May-20 10:56N 54°36' W 005°55'0 0.0
2017-May-20 10:14N 54°36' W 005°55'0 0.0
2017-May-20 09:59N 54°36' W 005°55'0 0.0
2017-May-20 09:26N 54°36' W 005°55'0 0.0
2017-May-20 08:59N 54°36' W 005°55'0 0.0
2017-May-20 08:14N 54°36' W 005°55'0 0.0
2017-May-20 07:56N 54°36' W 005°55'0 0.0
2017-May-20 07:23N 54°36' W 005°55'0 0.0
2017-May-20 06:50N 54°36' W 005°55'0 0.0
2017-May-20 06:26N 54°36' W 005°55'0 0.0
2017-May-20 05:56N 54°36' W 005°55'0 0.0
2017-May-20 05:29N 54°36' W 005°55'0 0.0
2017-May-20 04:59N 54°36' W 005°55'0 0.0
2017-May-20 04:29N 54°36' W 005°55'0 0.0
2017-May-20 03:56N 54°36' W 005°55'0 0.0
2017-May-20 03:29N 54°36' W 005°55'0 0.0
2017-May-20 02:59N 54°36' W 005°55'0 0.0
2017-May-20 02:29N 54°36' W 005°55'0 0.0
2017-May-20 01:59N 54°36' W 005°55'0 0.0
2017-May-20 01:29N 54°36' W 005°55'0 0.0
2017-May-20 00:50N 54°36' W 005°55'0 0.0
2017-May-20 00:23N 54°36' W 005°55'0 0.0
2017-May-19 23:59N 54°36' W 005°55'0 0.0
2017-May-19 23:23N 54°36' W 005°55'0 0.0
2017-May-19 22:56N 54°36' W 005°55'0 0.0
2017-May-19 22:26N 54°36' W 005°55'0 0.0
2017-May-19 21:59N 54°36' W 005°55'0 0.0
2017-May-19 21:26N 54°36' W 005°55'0 0.0
2017-May-19 20:56N 54°36' W 005°55'0 0.0
2017-May-19 20:29N 54°36' W 005°55'0 0.0
2017-May-19 19:56N 54°36' W 005°55'0 0.0
2017-May-19 19:20N 54°36' W 005°55'0 0.0
2017-May-19 18:56N 54°36' W 005°55'0 0.0
2017-May-19 18:23N 54°36' W 005°55'0 0.0
2017-May-19 17:59N 54°36' W 005°55'0 0.0
2017-May-19 17:08N 54°36' W 005°55'0 0.0
2017-May-19 16:53N 54°36' W 005°55'0 0.0
2017-May-19 16:08N 54°36' W 005°55'0 0.0
2017-May-19 15:56N 54°36' W 005°55'0 0.0
2017-May-19 15:26N 54°36' W 005°55'0 0.0
2017-May-19 14:47N 54°36' W 005°55'0 0.0
2017-May-19 13:50N 54°36' W 005°55'0 0.0
2017-May-19 13:29N 54°36' W 005°55'0 0.0
2017-May-19 12:43N 54°36' W 005°55'0 0.0
2017-May-19 12:25N 54°36' W 005°55'0 0.0
2017-May-19 11:55N 54°36' W 005°55'0 0.0
2017-May-19 11:13N 54°36' W 005°55'0 0.0
2017-May-19 10:58N 54°36' W 005°55'0 0.0
2017-May-19 10:07N 54°36' W 005°55'0 0.0
2017-May-19 09:55N 54°36' W 005°55'0 0.0
2017-May-19 09:28N 54°36' W 005°55'0 0.0
2017-May-19 08:34N 54°36' W 005°55'0 0.0
2017-May-19 08:25N 54°36' W 005°55'0 0.0
2017-May-19 07:58N 54°36' W 005°55'0 0.0
2017-May-19 07:07N 54°36' W 005°55'0 0.0
2017-May-19 06:55N 54°36' W 005°55'0 0.0
2017-May-19 06:16N 54°36' W 005°55'0 0.0
2017-May-19 05:58N 54°36' W 005°55'0 0.0
2017-May-19 05:19N 54°36' W 005°55'0 0.0
2017-May-19 04:58N 54°36' W 005°55'0 0.0
2017-May-19 04:16N 54°36' W 005°55'0 0.0
2017-May-19 03:46N 54°36' W 005°55'0 0.0
2017-May-19 03:25N 54°36' W 005°55'0 0.0
2017-May-19 02:58N 54°36' W 005°55'0 0.0
2017-May-19 02:25N 54°36' W 005°55'0 0.0
2017-May-19 01:52N 54°36' W 005°55'0 0.0
2017-May-19 01:22N 54°36' W 005°55'0 0.0
2017-May-19 00:34N 54°36' W 005°55'0 0.0
2017-May-19 00:25N 54°36' W 005°55'0 0.0
2017-May-18 23:31N 54°36' W 005°55'0 0.0
2017-May-18 23:25N 54°36' W 005°55'0 0.0
2017-May-18 22:58N 54°36' W 005°55'0 0.0
2017-May-18 22:22N 54°36' W 005°55'0 0.0
2017-May-18 21:34N 54°36' W 005°55'0 0.0
2017-May-18 21:25N 54°36' W 005°55'0 0.0
2017-May-18 20:46N 54°36' W 005°55'0 0.0
2017-May-18 20:10N 54°36' W 005°55'0 0.0
2017-May-18 19:07N 54°36' W 005°55'0 0.0
2017-May-18 18:58N 54°36' W 005°55'0 0.0
2017-May-18 18:28N 54°36' W 005°55'0 0.0
2017-May-18 17:16N 54°36' W 005°55'0 0.0
2017-May-18 16:46N 54°36' W 005°55'0 0.0
2017-May-18 16:25N 54°36' W 005°55'0 0.0
2017-May-18 15:40N 54°36' W 005°55'0 0.0
2017-May-18 15:22N 54°36' W 005°55'0 0.0
2017-May-18 14:19N 54°36' W 005°55'0 0.0
2017-May-18 13:16N 54°36' W 005°55'0 0.0
2017-May-18 12:58N 54°36' W 005°55'0 0.0
2017-May-18 12:28N 54°36' W 005°55'0 0.0
2017-May-18 11:55N 54°36' W 005°55'0 0.0
2017-May-18 11:22N 54°36' W 005°55'0 0.0
2017-May-18 10:40N 54°36' W 005°55'0 0.0
2017-May-18 10:28N 54°36' W 005°55'0 0.0
2017-May-18 09:49N 54°36' W 005°55'0 0.0
2017-May-18 09:28N 54°36' W 005°55'0 0.0
2017-May-18 08:52N 54°36' W 005°55'0 0.0
2017-May-18 06:33N 54°36' W 005°55'0 0.0
2017-May-18 06:27N 54°36' W 005°55'0 0.0
2017-May-18 05:57N 54°36' W 005°55'0 0.0
2017-May-18 05:30N 54°36' W 005°55'0 0.0
2017-May-18 04:58N 54°36' W 005°55'0 0.0
2017-May-18 04:30N 54°36' W 005°55'0 0.0
2017-May-18 04:00N 54°36' W 005°55'0 0.0
2017-May-18 03:30N 54°36' W 005°55'0 0.0
2017-May-18 02:54N 54°36' W 005°55'0 0.0
2017-May-18 02:18N 54°36' W 005°55'0 0.0
2017-May-18 02:00N 54°36' W 005°55'0 0.0
2017-May-18 01:25N 54°36' W 005°55'0 0.0
2017-May-17 22:42N 54°36' W 005°55'0 0.0
2017-May-17 22:30N 54°36' W 005°55'0 0.0
2017-May-17 21:54N 54°36' W 005°55'0 0.0
2017-May-17 21:24N 54°36' W 005°55'0 0.0
2017-May-17 20:03N 54°36' W 005°55'0 0.0
2017-May-17 20:00N 54°36' W 005°55'0 0.0
2017-May-17 19:27N 54°36' W 005°55'0 0.0
2017-May-17 18:51N 54°36' W 005°55'0 0.0
2017-May-17 18:15N 54°36' W 005°55'0 0.0
2017-May-17 17:06N 54°36' W 005°55'0 0.0
2017-May-17 17:00N 54°36' W 005°55'0 0.0
2017-May-17 16:12N 54°36' W 005°55'0 0.0
2017-May-17 15:54N 54°36' W 005°55'0 0.0
2017-May-17 13:54N 54°36' W 005°55'0 0.0
2017-May-17 13:24N 54°36' W 005°55'0 0.0
2017-May-17 12:54N 54°36' W 005°55'0 0.0
2017-May-17 12:27N 54°36' W 005°55'0 0.0
2017-May-17 11:57N 54°36' W 005°55'0 0.0
2017-May-17 11:09N 54°36' W 005°55'0 0.0
2017-May-17 11:00N 54°36' W 005°55'0 0.0
2017-May-17 10:12N 54°36' W 005°55'0 0.0
2017-May-17 04:45N 54°36' W 005°55'0 0.0
2017-May-17 04:30N 54°36' W 005°55'0 0.0
2017-May-17 04:00N 54°36' W 005°55'0 0.0
2017-May-17 03:24N 54°36' W 005°55'0 0.0
2017-May-17 02:39N 54°36' W 005°55'0 0.0
2017-May-17 02:30N 54°36' W 005°55'0 0.0
2017-May-17 01:57N 54°36' W 005°55'0 0.0
2017-May-17 01:09N 54°36' W 005°55'0 0.0
2017-May-17 00:45N 54°36' W 005°55'0 0.0
2017-May-17 00:27N 54°36' W 005°55'0 0.0
2017-May-16 23:48N 54°36' W 005°55'0 0.0
2017-May-16 23:23N 54°36' W 005°55'0 0.0
2017-May-16 22:54N 54°36' W 005°55'0 0.0
2017-May-16 22:29N 54°36' W 005°55'0 0.0
2017-May-16 21:48N 54°36' W 005°55'0 0.0
2017-May-16 21:18N 54°36' W 005°55'0 0.0
2017-May-16 20:39N 54°36' W 005°55'0 0.0
2017-May-16 20:29N 54°36' W 005°55'0 0.0
2017-May-16 19:42N 54°36' W 005°55'0 0.0
2017-May-16 19:14N 54°36' W 005°55'0 0.0
2017-May-16 18:35N 54°36' W 005°55'0 0.0
2017-May-16 18:26N 54°36' W 005°55'0 0.0
2017-May-16 17:47N 54°36' W 005°55'0 0.0
2017-May-16 17:29N 54°36' W 005°55'0 0.0
2017-May-16 16:59N 54°36' W 005°55'0 0.0
2017-May-16 16:11N 54°36' W 005°55'0 0.0
2017-May-16 15:17N 54°36' W 005°55'0 0.0
2017-May-16 14:35N 54°36' W 005°55'0 0.0
2017-May-16 13:50N 54°36' W 005°55'0 0.0
2017-May-16 13:23N 54°36' W 005°55'0 0.0
2017-May-16 12:47N 54°36' W 005°55'0 0.0
2017-May-16 12:17N 54°36' W 005°55'0 0.0
2017-May-16 11:02N 54°36' W 005°55'0 0.0
2017-May-16 10:53N 54°36' W 005°55'0 0.0
2017-May-16 09:26N 54°36' W 005°55'0 0.0
2017-May-16 08:05N 54°36' W 005°55'0 0.0
2017-May-16 07:35N 54°36' W 005°55'0 0.0
2017-May-16 07:08N 54°36' W 005°55'  
Track history (hours):
 
Tides and Currents Weather Stations Pressure Air Temp Water Temp Dewpoint Dewpoint Depression Visibility Wind Speed Wind Dir Waves Ship Positions

Oceanographic research ship Corystes (UK)

Detailed information on ship capabilities available from University of Delaware's Ocean Information Center.

Last reported at 2017-May-26 07:00 UTC. Time now 2017-May-26 07:25 UTC.
Position N 54°39' W 005°27'.

Length 53 m; draft 5.2 m.

Type: Cargo ship. MMSI: 233558000.

Date/timePositionNaut miles runAvg speedWind from/ knotsBaromVisibWave heightAir tempDewpointWater temp
2017-May-26 07:00N 54°39' W 005°27'3 6.8
2017-May-26 06:30N 54°36' W 005°25'4 8.0
2017-May-26 06:00N 54°33' W 005°23'4 8.5
2017-May-26 05:30N 54°29' W 005°20'5 9.0
2017-May-26 05:00N 54°24' W 005°17'5 9.3
2017-May-26 04:30N 54°20' W 005°15'5 9.7
2017-May-26 04:00N 54°16' W 005°11'5 9.8
2017-May-26 03:30N 54°11' W 005°09'7 7.1
2017-May-26 02:27N 54°04' W 005°05'4 8.4
2017-May-26 02:00N 54°04' W 005°12'4 8.3
2017-May-26 01:30N 54°04' W 005°19'1 2.6
2017-May-26 01:00N 54°03' W 005°20'5 9.6
2017-May-26 00:30N 53°58' W 005°20'2 4.0
2017-May-25 23:55N 53°56' W 005°20'4 9.5
2017-May-25 23:30N 53°53' W 005°14'4 6.3
2017-May-25 22:53N 53°52' W 005°08'8 8.2
2017-May-25 21:52N 53°53' W 004°54'1 2.6
2017-May-25 21:30N 53°53' W 004°52'7 3.6
2017-May-25 19:25N 53°57' W 004°42'0 0.4
2017-May-25 18:55N 53°57' W 004°42'9 4.3
2017-May-25 16:48N 54°03' W 004°54'3 9.5
2017-May-25 16:30N 54°04' W 004°58'5 9.4
2017-May-25 16:00N 54°07' W 005°05'5 9.6
2017-May-25 15:30N 54°09' W 005°12'5 9.1
2017-May-25 15:00N 54°13' W 005°16'9 9.1
2017-May-25 14:00N 54°22' W 005°20'1 1.3
2017-May-25 13:30N 54°23' W 005°20'1 2.8
2017-May-25 13:00N 54°22' W 005°23'0 0.7
2017-May-25 12:30N 54°22' W 005°23'1 2.5
2017-May-25 12:00N 54°22' W 005°20'3 5.9
2017-May-25 11:30N 54°23' W 005°15'4 7.9
2017-May-25 11:00N 54°23' W 005°09'3 5.6
2017-May-25 10:30N 54°23' W 005°04'5 9.5
2017-May-25 10:00N 54°23' W 004°56'2 3.9
2017-May-25 09:30N 54°22' W 004°52'4 8.2
2017-May-25 09:00N 54°18' W 004°54'5 9.2
2017-May-25 08:30N 54°14' W 004°55'5 9.1
2017-May-25 08:00N 54°09' W 004°56'5 8.7
2017-May-25 07:29N 54°05' W 004°58'4 9.3
2017-May-25 07:00N 54°00' W 004°60'5 9.5
2017-May-25 06:30N 53°56' W 005°02'13 2.3
2017-May-25 00:58N 53°49' W 005°20'4 8.0
2017-May-25 00:27N 53°49' W 005°27'4 8.1
2017-May-24 23:56N 53°49' W 005°34'1 3.0
2017-May-24 23:29N 53°50' W 005°36'13 7.6
2017-May-24 21:45N 54°03' W 005°37'4 9.3
2017-May-24 21:22N 54°06' W 005°37'1 2.2
2017-May-24 21:00N 54°07' W 005°38'5 9.1
2017-May-24 20:27N 54°07' W 005°46'3 5.5
2017-May-24 19:59N 54°07' W 005°50'4 8.1
2017-May-24 19:30N 54°07' W 005°44'4 7.2
2017-May-24 18:58N 54°07' W 005°37'3 7.4
2017-May-24 18:30N 54°07' W 005°31'5 9.1
2017-May-24 18:00N 54°07' W 005°24'2 3.8
2017-May-24 17:30N 54°07' W 005°20'5 9.4
2017-May-24 17:00N 54°07' W 005°12'19 4.3
2017-May-24 12:35N 53°56' W 005°38'2 7.9
2017-May-24 12:20N 53°56' W 005°42'3 9.8
2017-May-24 11:59N 53°56' W 005°47'3 6.0
2017-May-24 11:28N 53°56' W 005°53'5 8.3
2017-May-24 10:52N 53°52' W 005°57'1 3.0
2017-May-24 10:30N 53°52' W 005°58'5 9.7
2017-May-24 10:00N 53°55' W 006°05'1 1.3
2017-May-24 09:31N 53°56' W 006°05'4 8.2
2017-May-24 09:00N 53°52' W 006°07'3 6.5
2017-May-24 08:30N 53°49' W 006°08'4 7.6
2017-May-24 08:00N 53°50' W 006°02'3 5.9
2017-May-24 07:30N 53°52' W 005°57'3 6.9
2017-May-24 07:00N 53°49' W 005°53'2 3.9
2017-May-24 06:30N 53°49' W 005°50'5 9.4
2017-May-24 06:00N 53°49' W 005°42'17 3.9
2017-May-24 01:40N 53°34' W 005°52'1 3.0
2017-May-24 01:27N 53°34' W 005°53'4 8.5
2017-May-24 00:58N 53°36' W 005°59'3 5.2
2017-May-24 00:20N 53°38' W 006°04'3 8.9
2017-May-24 00:00N 53°39' W 005°59'5 6.4
2017-May-23 23:13N 53°42' W 005°52'2 9.8
2017-May-23 23:00N 53°44' W 005°52'5 9.8
2017-May-23 22:30N 53°49' W 005°53'2 4.3
2017-May-23 22:00N 53°51' W 005°52'5 8.7
2017-May-23 21:27N 53°56' W 005°53'2 4.1
2017-May-23 21:00N 53°56' W 005°56'5 9.8
2017-May-23 20:30N 53°54' W 006°03'2 4.9
2017-May-23 20:00N 53°52' W 006°06'5 9.3
2017-May-23 19:30N 53°49' W 005°59'4 7.8
2017-May-23 19:00N 53°49' W 005°52'3 6.5
2017-May-23 18:30N 53°49' W 005°47'8 1.7
2017-May-23 13:32N 53°41' W 005°44'2 9.8
2017-May-23 13:20N 53°41' W 005°47'9 3.9
2017-May-23 11:02N 53°40' W 006°02'1 9.8
2017-May-23 10:58N 53°41' W 006°03'4 4.8
2017-May-23 10:13N 53°37' W 006°03'22 2.0
2017-May-22 23:17N 53°19' W 005°45'3 9.5
2017-May-22 22:58N 53°19' W 005°50'2 4.1
2017-May-22 22:30N 53°19' W 005°53'5 9.5
2017-May-22 21:59N 53°24' W 005°52'2 4.9
2017-May-22 21:30N 53°26' W 005°53'4 9.1
2017-May-22 21:00N 53°25' W 005°60'1 1.9
2017-May-22 20:30N 53°25' W 006°01'4 8.4
2017-May-22 20:00N 53°23' W 005°55'2 4.5
2017-May-22 19:30N 53°22' W 005°51'54 4.9
2017-May-22 08:21N 54°04' W 004°53'3 8.6
2017-May-22 08:00N 54°08' W 004°53'2 1.8
2017-May-22 07:08N 54°06' W 004°52'0 2.5
2017-May-22 06:58N 54°07' W 004°52'1 0.8
2017-May-22 06:00N 54°07' W 004°53'0 0.2
2017-May-22 05:24N 54°07' W 004°53'1 1.7
2017-May-22 05:00N 54°07' W 004°52'2 4.8
2017-May-22 04:30N 54°08' W 004°55'5 9.4
2017-May-22 04:00N 54°10' W 005°02'2 4.3
2017-May-22 03:30N 54°11' W 005°06'4 8.1
2017-May-22 03:00N 54°10' W 005°12'4 8.7
2017-May-22 02:30N 54°10' W 005°20'1 3.0
2017-May-22 02:00N 54°12' W 005°20'5 9.1
2017-May-22 01:30N 54°16' W 005°20'5 9.2
2017-May-22 01:00N 54°21' W 005°20'4 8.7
2017-May-22 00:30N 54°25' W 005°20'4 8.4
2017-May-22 00:00N 54°29' W 005°20'4 8.3
2017-May-21 23:30N 54°33' W 005°23'4 7.6
2017-May-21 23:00N 54°37' W 005°25'4 7.6
2017-May-21 22:31N 54°40' W 005°27'3 6.8
2017-May-21 22:00N 54°43' W 005°31'4 8.7
2017-May-21 21:30N 54°43' W 005°38'5 9.7
2017-May-21 21:00N 54°41' W 005°46'5 9.5
2017-May-21 20:30N 54°38' W 005°52'2 4.4
2017-May-21 20:00N 54°36' W 005°55'0 0.0
2017-May-21 19:15N 54°36' W 005°55'0 0.0
2017-May-21 18:54N 54°36' W 005°55'0 0.0
2017-May-21 18:30N 54°36' W 005°55'0 0.0
2017-May-21 17:27N 54°36' W 005°55'0 0.0
2017-May-21 17:00N 54°36' W 005°55'0 0.0
2017-May-21 16:18N 54°36' W 005°55'0 0.0
2017-May-21 15:57N 54°36' W 005°55'0 0.0
2017-May-21 15:30N 54°36' W 005°55'0 0.0
2017-May-21 13:42N 54°36' W 005°55'0 0.0
2017-May-21 13:27N 54°36' W 005°55'0 0.0
2017-May-21 12:57N 54°36' W 005°55'0 0.0
2017-May-21 12:30N 54°36' W 005°55'0 0.0
2017-May-21 11:57N 54°36' W 005°55'0 0.0
2017-May-21 11:21N 54°36' W 005°55'0 0.0
2017-May-21 10:57N 54°36' W 005°55'0 0.0
2017-May-21 10:06N 54°36' W 005°55'0 0.0
2017-May-21 10:00N 54°36' W 005°55'0 0.0
2017-May-21 09:27N 54°36' W 005°55'0 0.0
2017-May-21 08:51N 54°36' W 005°55'0 0.0
2017-May-21 08:24N 54°36' W 005°55'0 0.0
2017-May-21 07:48N 54°36' W 005°55'0 0.0
2017-May-21 07:27N 54°36' W 005°55'0 0.0
2017-May-21 06:54N 54°36' W 005°55'0 0.0
2017-May-21 06:21N 54°36' W 005°55'0 0.0
2017-May-21 05:33N 54°36' W 005°55'0 0.0
2017-May-21 05:27N 54°36' W 005°55'0 0.0
2017-May-21 04:57N 54°36' W 005°55'0 0.0
2017-May-21 04:30N 54°36' W 005°55'0 0.0
2017-May-21 03:57N 54°36' W 005°55'0 0.0
2017-May-21 03:30N 54°36' W 005°55'0 0.0
2017-May-21 02:45N 54°36' W 005°55'0 0.0
2017-May-21 02:21N 54°36' W 005°55'0 0.0
2017-May-21 01:51N 54°36' W 005°55'0 0.0
2017-May-21 01:24N 54°36' W 005°55'0 0.0
2017-May-21 00:48N 54°36' W 005°55'0 0.0
2017-May-21 00:30N 54°36' W 005°55'0 0.0
2017-May-20 23:54N 54°36' W 005°55'0 0.0
2017-May-20 23:09N 54°36' W 005°55'0 0.0
2017-May-20 22:44N 54°36' W 005°55'0 0.0
2017-May-20 22:20N 54°36' W 005°55'0 0.0
2017-May-20 21:56N 54°36' W 005°55'0 0.0
2017-May-20 21:21N 54°36' W 005°55'0 0.0
2017-May-20 20:33N 54°36' W 005°55'0 0.0
2017-May-20 20:20N 54°36' W 005°55'0 0.0
2017-May-20 19:56N 54°36' W 005°55'0 0.0
2017-May-20 19:26N 54°36' W 005°55'0 0.0
2017-May-20 18:56N 54°36' W 005°55'0 0.0
2017-May-20 18:20N 54°36' W 005°55'0 0.0
2017-May-20 17:59N 54°36' W 005°55'0 0.0
2017-May-20 17:26N 54°36' W 005°55'0 0.0
2017-May-20 16:59N 54°36' W 005°55'0 0.0
2017-May-20 16:23N 54°36' W 005°55'0 0.0
2017-May-20 15:59N 54°36' W 005°55'0 0.0
2017-May-20 15:29N 54°36' W 005°55'0 0.0
2017-May-20 14:59N 54°36' W 005°55'0 0.0
2017-May-20 14:26N 54°36' W 005°55'0 0.0
2017-May-20 13:29N 54°36' W 005°55'0 0.0
2017-May-20 12:38N 54°36' W 005°55'0 0.0
2017-May-20 12:26N 54°36' W 005°55'0 0.0
2017-May-20 11:47N 54°36' W 005°55'0 0.0
2017-May-20 11:20N 54°36' W 005°55'0 0.0
2017-May-20 10:56N 54°36' W 005°55'0 0.0
2017-May-20 10:14N 54°36' W 005°55'0 0.0
2017-May-20 09:59N 54°36' W 005°55'0 0.0
2017-May-20 09:26N 54°36' W 005°55'0 0.0
2017-May-20 08:59N 54°36' W 005°55'0 0.0
2017-May-20 08:14N 54°36' W 005°55'0 0.0
2017-May-20 07:56N 54°36' W 005°55'0 0.0
2017-May-20 07:23N 54°36' W 005°55'0 0.0
2017-May-20 06:50N 54°36' W 005°55'0 0.0
2017-May-20 06:26N 54°36' W 005°55'0 0.0
2017-May-20 05:56N 54°36' W 005°55'0 0.0
2017-May-20 05:29N 54°36' W 005°55'0 0.0
2017-May-20 04:59N 54°36' W 005°55'0 0.0
2017-May-20 04:29N 54°36' W 005°55'0 0.0
2017-May-20 03:56N 54°36' W 005°55'0 0.0
2017-May-20 03:29N 54°36' W 005°55'0 0.0
2017-May-20 02:59N 54°36' W 005°55'0 0.0
2017-May-20 02:29N 54°36' W 005°55'0 0.0
2017-May-20 01:59N 54°36' W 005°55'0 0.0
2017-May-20 01:29N 54°36' W 005°55'0 0.0
2017-May-20 00:50N 54°36' W 005°55'0 0.0
2017-May-20 00:23N 54°36' W 005°55'0 0.0
2017-May-19 23:59N 54°36' W 005°55'0 0.0
2017-May-19 23:23N 54°36' W 005°55'0 0.0
2017-May-19 22:56N 54°36' W 005°55'0 0.0
2017-May-19 22:26N 54°36' W 005°55'0 0.0
2017-May-19 21:59N 54°36' W 005°55'0 0.0
2017-May-19 21:26N 54°36' W 005°55'0 0.0
2017-May-19 20:56N 54°36' W 005°55'0 0.0
2017-May-19 20:29N 54°36' W 005°55'0 0.0
2017-May-19 19:56N 54°36' W 005°55'0 0.0
2017-May-19 19:20N 54°36' W 005°55'0 0.0
2017-May-19 18:56N 54°36' W 005°55'0 0.0
2017-May-19 18:23N 54°36' W 005°55'0 0.0
2017-May-19 17:59N 54°36' W 005°55'0 0.0
2017-May-19 17:08N 54°36' W 005°55'0 0.0
2017-May-19 16:53N 54°36' W 005°55'0 0.0
2017-May-19 16:08N 54°36' W 005°55'0 0.0
2017-May-19 15:56N 54°36' W 005°55'0 0.0
2017-May-19 15:26N 54°36' W 005°55'0 0.0
2017-May-19 14:47N 54°36' W 005°55'0 0.0
2017-May-19 13:50N 54°36' W 005°55'0 0.0
2017-May-19 13:29N 54°36' W 005°55'0 0.0
2017-May-19 12:43N 54°36' W 005°55'0 0.0
2017-May-19 12:25N 54°36' W 005°55'0 0.0
2017-May-19 11:55N 54°36' W 005°55'0 0.0
2017-May-19 11:13N 54°36' W 005°55'0 0.0
2017-May-19 10:58N 54°36' W 005°55'0 0.0
2017-May-19 10:07N 54°36' W 005°55'0 0.0
2017-May-19 09:55N 54°36' W 005°55'0 0.0
2017-May-19 09:28N 54°36' W 005°55'0 0.0
2017-May-19 08:34N 54°36' W 005°55'0 0.0
2017-May-19 08:25N 54°36' W 005°55'0 0.0
2017-May-19 07:58N 54°36' W 005°55'0 0.0
2017-May-19 07:07N 54°36' W 005°55'0 0.0
2017-May-19 06:55N 54°36' W 005°55'0 0.0
2017-May-19 06:16N 54°36' W 005°55'0 0.0
2017-May-19 05:58N 54°36' W 005°55'0 0.0
2017-May-19 05:19N 54°36' W 005°55'0 0.0
2017-May-19 04:58N 54°36' W 005°55'0 0.0
2017-May-19 04:16N 54°36' W 005°55'0 0.0
2017-May-19 03:46N 54°36' W 005°55'0 0.0
2017-May-19 03:25N 54°36' W 005°55'0 0.0
2017-May-19 02:58N 54°36' W 005°55'0 0.0
2017-May-19 02:25N 54°36' W 005°55'0 0.0
2017-May-19 01:52N 54°36' W 005°55'0 0.0
2017-May-19 01:22N 54°36' W 005°55'0 0.0
2017-May-19 00:34N 54°36' W 005°55'0 0.0
2017-May-19 00:25N 54°36' W 005°55'0 0.0
2017-May-18 23:31N 54°36' W 005°55'0 0.0
2017-May-18 23:25N 54°36' W 005°55'0 0.0
2017-May-18 22:58N 54°36' W 005°55'0 0.0
2017-May-18 22:22N 54°36' W 005°55'0 0.0
2017-May-18 21:34N 54°36' W 005°55'0 0.0
2017-May-18 21:25N 54°36' W 005°55'0 0.0
2017-May-18 20:46N 54°36' W 005°55'0 0.0
2017-May-18 20:10N 54°36' W 005°55'0 0.0
2017-May-18 19:07N 54°36' W 005°55'0 0.0
2017-May-18 18:58N 54°36' W 005°55'0 0.0
2017-May-18 18:28N 54°36' W 005°55'0 0.0
2017-May-18 17:16N 54°36' W 005°55'0 0.0
2017-May-18 16:46N 54°36' W 005°55'0 0.0
2017-May-18 16:25N 54°36' W 005°55'0 0.0
2017-May-18 15:40N 54°36' W 005°55'0 0.0
2017-May-18 15:22N 54°36' W 005°55'0 0.0
2017-May-18 14:19N 54°36' W 005°55'0 0.0
2017-May-18 13:16N 54°36' W 005°55'0 0.0
2017-May-18 12:58N 54°36' W 005°55'0 0.0
2017-May-18 12:28N 54°36' W 005°55'0 0.0
2017-May-18 11:55N 54°36' W 005°55'0 0.0
2017-May-18 11:22N 54°36' W 005°55'0 0.0
2017-May-18 10:40N 54°36' W 005°55'0 0.0
2017-May-18 10:28N 54°36' W 005°55'0 0.0
2017-May-18 09:49N 54°36' W 005°55'0 0.0
2017-May-18 09:28N 54°36' W 005°55'0 0.0
2017-May-18 08:52N 54°36' W 005°55'0 0.0
2017-May-18 06:33N 54°36' W 005°55'0 0.0
2017-May-18 06:27N 54°36' W 005°55'0 0.0
2017-May-18 05:57N 54°36' W 005°55'0 0.0
2017-May-18 05:30N 54°36' W 005°55'0 0.0
2017-May-18 04:58N 54°36' W 005°55'0 0.0
2017-May-18 04:30N 54°36' W 005°55'0 0.0
2017-May-18 04:00N 54°36' W 005°55'0 0.0
2017-May-18 03:30N 54°36' W 005°55'0 0.0
2017-May-18 02:54N 54°36' W 005°55'0 0.0
2017-May-18 02:18N 54°36' W 005°55'0 0.0
2017-May-18 02:00N 54°36' W 005°55'0 0.0
2017-May-18 01:25N 54°36' W 005°55'0 0.0
2017-May-17 22:42N 54°36' W 005°55'0 0.0
2017-May-17 22:30N 54°36' W 005°55'0 0.0
2017-May-17 21:54N 54°36' W 005°55'0 0.0
2017-May-17 21:24N 54°36' W 005°55'0 0.0
2017-May-17 20:03N 54°36' W 005°55'0 0.0
2017-May-17 20:00N 54°36' W 005°55'0 0.0
2017-May-17 19:27N 54°36' W 005°55'0 0.0
2017-May-17 18:51N 54°36' W 005°55'0 0.0
2017-May-17 18:15N 54°36' W 005°55'0 0.0
2017-May-17 17:06N 54°36' W 005°55'0 0.0
2017-May-17 17:00N 54°36' W 005°55'0 0.0
2017-May-17 16:12N 54°36' W 005°55'0 0.0
2017-May-17 15:54N 54°36' W 005°55'0 0.0
2017-May-17 13:54N 54°36' W 005°55'0 0.0
2017-May-17 13:24N 54°36' W 005°55'0 0.0
2017-May-17 12:54N 54°36' W 005°55'0 0.0
2017-May-17 12:27N 54°36' W 005°55'0 0.0
2017-May-17 11:57N 54°36' W 005°55'0 0.0
2017-May-17 11:09N 54°36' W 005°55'0 0.0
2017-May-17 11:00N 54°36' W 005°55'0 0.0
2017-May-17 10:12N 54°36' W 005°55'0 0.0
2017-May-17 04:45N 54°36' W 005°55'0 0.0
2017-May-17 04:30N 54°36' W 005°55'0 0.0
2017-May-17 04:00N 54°36' W 005°55'0 0.0
2017-May-17 03:24N 54°36' W 005°55'0 0.0
2017-May-17 02:39N 54°36' W 005°55'0 0.0
2017-May-17 02:30N 54°36' W 005°55'0 0.0
2017-May-17 01:57N 54°36' W 005°55'0 0.0
2017-May-17 01:09N 54°36' W 005°55'0 0.0
2017-May-17 00:45N 54°36' W 005°55'0 0.0
2017-May-17 00:27N 54°36' W 005°55'0 0.0
2017-May-16 23:48N 54°36' W 005°55'0 0.0
2017-May-16 23:23N 54°36' W 005°55'0 0.0
2017-May-16 22:54N 54°36' W 005°55'0 0.0
2017-May-16 22:29N 54°36' W 005°55'0 0.0
2017-May-16 21:48N 54°36' W 005°55'0 0.0
2017-May-16 21:18N 54°36' W 005°55'0 0.0
2017-May-16 20:39N 54°36' W 005°55'0 0.0
2017-May-16 20:29N 54°36' W 005°55'0 0.0
2017-May-16 19:42N 54°36' W 005°55'0 0.0
2017-May-16 19:14N 54°36' W 005°55'0 0.0
2017-May-16 18:35N 54°36' W 005°55'0 0.0
2017-May-16 18:26N 54°36' W 005°55'0 0.0
2017-May-16 17:47N 54°36' W 005°55'0 0.0
2017-May-16 17:29N 54°36' W 005°55'0 0.0
2017-May-16 16:59N 54°36' W 005°55'0 0.0
2017-May-16 16:11N 54°36' W 005°55'0 0.0
2017-May-16 15:17N 54°36' W 005°55'0 0.0
2017-May-16 14:35N 54°36' W 005°55'0 0.0
2017-May-16 13:50N 54°36' W 005°55'0 0.0
2017-May-16 13:23N 54°36' W 005°55'0 0.0
2017-May-16 12:47N 54°36' W 005°55'0 0.0
2017-May-16 12:17N 54°36' W 005°55'0 0.0
2017-May-16 11:02N 54°36' W 005°55'0 0.0
2017-May-16 10:53N 54°36' W 005°55'0 0.0
2017-May-16 09:26N 54°36' W 005°55'0 0.0
2017-May-16 08:05N 54°36' W 005°55'0 0.0
2017-May-16 07:35N 54°36' W 005°55'0 0.0
2017-May-16 07:08N 54°36' W 005°55'  

Dump ship's entire track history